Time;durP1;ratioP1;P1;durP2;ratioP2;P2;SDS_P1;SDS_P2;PMS_P1;PMS_P2;Temp;Humidity;BMP_temperature;BMP_pressure;BME280_temperature;BME280_humidity;BME280_pressure;Samples;Min_cycle;Max_cycle;Signal;HPM_P1;HPM_P2
2024/01/02 00:02:04;;;;;;;10.48;7.88;;;;;;;7.91;66.79;93588.22;5016560;28;20052;-76
2024/01/02 00:04:29;;;;;;;8.63;6.78;;;;;;;7.86;66.71;93567.16;5019919;28;20067;-78
2024/01/02 00:06:55;;;;;;;8.45;6.78;;;;;;;8.00;66.36;93594.34;5019255;28;20025;-77
2024/01/02 00:09:20;;;;;;;7.10;5.82;;;;;;;8.10;66.52;93608.13;5018308;28;20045;-77
2024/01/02 00:11:45;;;;;;;7.95;6.43;;;;;;;8.12;66.68;93610.47;5004775;28;20040;-77
2024/01/02 00:14:11;;;;;;;7.18;6.10;;;;;;;8.27;65.88;93612.75;4998479;28;20589;-76
2024/01/02 00:16:36;;;;;;;12.57;10.10;;;;;;;8.29;65.31;93607.16;5007053;28;20434;-77
2024/01/02 00:19:02;;;;;;;12.82;10.63;;;;;;;8.19;65.74;93610.84;5024823;28;20033;-77
2024/01/02 00:21:27;;;;;;;15.25;10.52;;;;;;;8.19;65.83;93594.16;5007412;28;20108;-77
2024/01/02 00:23:53;;;;;;;14.55;11.15;;;;;;;8.24;66.04;93608.06;5005491;28;20978;-75
2024/01/02 00:26:18;;;;;;;13.30;10.82;;;;;;;8.29;64.91;93583.31;5008609;28;20056;-79
2024/01/02 00:28:43;;;;;;;8.40;6.55;;;;;;;8.56;64.56;93605.09;5032167;28;20151;-76
2024/01/02 00:31:09;;;;;;;8.30;6.25;;;;;;;8.48;64.33;93587.31;5014047;28;20472;-76
2024/01/02 00:33:34;;;;;;;10.77;8.18;;;;;;;8.77;63.77;93615.19;5015916;28;20084;-76
2024/01/02 00:35:59;;;;;;;16.08;12.60;;;;;;;8.86;62.49;93613.34;5013977;28;20041;-78
2024/01/02 00:38:27;;;;;;;12.80;9.57;;;;;;;8.83;62.82;93612.09;5018204;28;20156;-77
2024/01/02 00:40:52;;;;;;;9.35;8.02;;;;;;;8.73;62.43;93587.72;5020486;28;20041;-75
2024/01/02 00:43:18;;;;;;;9.85;7.72;;;;;;;8.88;62.00;93596.06;5012966;28;20063;-76
2024/01/02 00:45:44;;;;;;;8.88;7.53;;;;;;;9.05;61.79;93605.91;5002807;28;20563;-76
2024/01/02 00:48:10;;;;;;;7.68;6.82;;;;;;;9.11;61.05;93590.63;5014116;28;20044;-75
2024/01/02 00:50:35;;;;;;;5.95;5.10;;;;;;;9.17;60.46;93582.28;5008196;28;20050;-76
2024/01/02 00:53:03;;;;;;;6.47;5.47;;;;;;;9.31;60.03;93604.16;5004259;28;20882;-76
2024/01/02 00:55:29;;;;;;;6.40;4.97;;;;;;;9.31;59.59;93593.53;5018570;28;20064;-75
2024/01/02 00:57:54;;;;;;;4.45;4.05;;;;;;;9.30;59.70;93594.63;5018939;28;20061;-75
2024/01/02 01:00:20;;;;;;;4.57;4.00;;;;;;;9.35;59.25;93586.50;5004073;28;20044;-76
2024/01/02 01:02:45;;;;;;;4.80;4.20;;;;;;;9.22;59.23;93582.13;5019190;28;20122;-75
2024/01/02 01:05:11;;;;;;;5.65;4.18;;;;;;;9.25;59.32;93584.16;5016043;28;20605;-75
2024/01/02 01:07:36;;;;;;;5.78;4.63;;;;;;;9.30;59.68;93589.31;5019211;28;20714;-74
2024/01/02 01:10:02;;;;;;;5.53;4.47;;;;;;;9.31;59.32;93577.59;5022492;28;20119;-75
2024/01/02 01:12:28;;;;;;;4.70;3.75;;;;;;;9.27;59.59;93579.31;5019623;28;20021;-75
2024/01/02 01:14:53;;;;;;;3.30;3.00;;;;;;;9.09;58.99;93561.78;5020894;28;20120;-76
2024/01/02 01:17:19;;;;;;;7.75;5.60;;;;;;;9.05;59.45;93587.34;5019453;28;20465;-76
2024/01/02 01:19:44;;;;;;;4.72;3.88;;;;;;;8.91;59.46;93576.84;5017945;28;20037;-75
2024/01/02 01:22:10;;;;;;;4.35;3.30;;;;;;;9.04;59.48;93588.47;5006116;28;20060;-76
2024/01/02 01:24:35;;;;;;;5.88;3.60;;;;;;;9.03;59.69;93586.88;5000936;28;20821;-75
2024/01/02 01:27:00;;;;;;;4.63;3.22;;;;;;;8.95;59.55;93569.84;5021401;28;20040;-75
2024/01/02 01:29:26;;;;;;;3.78;3.25;;;;;;;8.99;59.55;93575.34;5020972;28;20506;-75
2024/01/02 01:31:51;;;;;;;3.72;2.97;;;;;;;8.89;59.62;93551.75;5004702;28;20506;-75
2024/01/02 01:34:17;;;;;;;3.55;3.05;;;;;;;9.07;59.23;93582.53;5015654;28;20553;-75
2024/01/02 01:36:42;;;;;;;4.43;3.63;;;;;;;9.08;59.51;93581.44;5019382;28;20083;-75
2024/01/02 01:39:08;;;;;;;3.55;2.63;;;;;;;8.96;59.84;93575.94;5020539;28;20115;-75
2024/01/02 01:41:33;;;;;;;4.40;3.10;;;;;;;9.05;59.59;93579.38;5017651;28;20458;-77
2024/01/02 01:43:59;;;;;;;3.22;2.92;;;;;;;9.07;59.79;93579.88;5021357;28;20301;-77
2024/01/02 01:46:34;;;;;;;2.95;2.60;;;;;;;8.73;60.42;93555.91;5000931;28;20456;-77
2024/01/02 01:48:59;;;;;;;3.97;2.90;;;;;;;8.87;60.93;93578.56;5003366;28;20064;-77
2024/01/02 01:51:26;;;;;;;3.40;2.30;;;;;;;9.03;60.28;93571.75;5009783;28;20454;-76
2024/01/02 01:53:53;;;;;;;4.20;2.60;;;;;;;8.85;60.17;93540.94;5020012;28;20527;-75
2024/01/02 01:56:19;;;;;;;2.45;2.17;;;;;;;8.96;60.37;93570.63;5001183;28;20164;-75
2024/01/02 01:58:44;;;;;;;2.97;2.50;;;;;;;8.84;60.96;93575.75;5018935;28;20116;-75
2024/01/02 02:01:10;;;;;;;4.05;3.03;;;;;;;8.75;60.82;93557.19;4996810;28;20029;-78
2024/01/02 02:03:35;;;;;;;12.15;6.22;;;;;;;8.81;61.63;93581.66;5023518;28;20044;-74
2024/01/02 02:06:01;;;;;;;24.17;8.00;;;;;;;8.84;61.50;93575.75;5003629;28;20037;-77
2024/01/02 02:08:26;;;;;;;8.30;4.32;;;;;;;8.82;61.30;93569.97;5010600;28;20041;-75
2024/01/02 02:10:52;;;;;;;3.50;2.97;;;;;;;8.87;61.43;93577.78;5019513;28;20041;-78
2024/01/02 02:13:20;;;;;;;5.10;3.25;;;;;;;8.89;61.46;93575.63;5017972;28;20453;-76
2024/01/02 02:15:48;;;;;;;5.88;3.10;;;;;;;8.82;62.36;93580.56;5019883;28;20144;-74
2024/01/02 02:18:14;;;;;;;4.72;3.22;;;;;;;8.81;62.42;93571.06;5002127;28;20087;-75
2024/01/02 02:20:39;;;;;;;3.70;3.22;;;;;;;8.89;62.15;93576.41;5019168;28;20037;-74
2024/01/02 02:23:05;;;;;;;12.60;5.32;;;;;;;8.89;61.70;93565.78;5018669;28;20045;-75
2024/01/02 02:25:30;;;;;;;9.75;5.90;;;;;;;8.78;61.47;93553.13;5006361;28;20521;-75
2024/01/02 02:27:56;;;;;;;7.15;3.72;;;;;;;8.92;61.51;93567.03;5014486;28;20337;-76
2024/01/02 02:30:21;;;;;;;13.30;6.03;;;;;;;8.81;60.90;93557.78;4997878;28;20429;-76
2024/01/02 02:32:46;;;;;;;28.95;9.02;;;;;;;8.50;61.84;93532.13;4996935;28;20042;-76
2024/01/02 02:35:12;;;;;;;17.88;8.18;;;;;;;8.75;62.08;93570.44;4997423;28;20045;-76
2024/01/02 02:37:37;;;;;;;5.70;4.25;;;;;;;8.45;62.78;93547.38;4999672;28;20038;-76
2024/01/02 02:40:03;;;;;;;7.22;5.10;;;;;;;8.36;62.68;93526.16;4998315;28;20093;-76
2024/01/02 02:42:29;;;;;;;5.63;4.65;;;;;;;8.46;62.73;93543.66;4999864;28;20083;-77
2024/01/02 02:44:54;;;;;;;6.95;4.72;;;;;;;8.54;62.98;93559.59;5006491;28;20084;-76
2024/01/02 02:47:22;;;;;;;6.03;4.63;;;;;;;8.58;62.54;93555.22;5007592;28;20038;-76
2024/01/02 02:49:47;;;;;;;7.43;5.45;;;;;;;8.56;62.24;93546.00;5001471;28;20159;-77
2024/01/02 02:52:13;;;;;;;9.27;5.05;;;;;;;8.64;62.14;93553.22;5001097;28;20037;-78
2024/01/02 02:54:39;;;;;;;10.43;5.82;;;;;;;8.80;61.88;93567.66;5000367;28;20117;-77
2024/01/02 02:57:05;;;;;;;7.10;5.47;;;;;;;8.82;62.20;93569.97;4997668;28;20507;-76
2024/01/02 02:59:31;;;;;;;5.72;4.53;;;;;;;8.70;61.99;93551.22;4997394;28;20052;-76
2024/01/02 03:01:56;;;;;;;5.18;4.45;;;;;;;8.75;62.29;93545.78;4999539;28;20034;-78
2024/01/02 03:04:21;;;;;;;11.73;6.65;;;;;;;8.80;61.82;93551.72;4997942;28;20037;-75
2024/01/02 03:06:47;;;;;;;6.22;4.45;;;;;;;8.70;62.60;93567.13;5000010;28;20029;-76
2024/01/02 03:09:12;;;;;;;6.22;4.32;;;;;;;8.67;63.15;93560.56;5004281;28;20600;-76
2024/01/02 03:11:38;;;;;;;6.75;4.40;;;;;;;8.61;62.50;93537.16;4995582;28;20635;-76
2024/01/02 03:14:03;;;;;;;6.82;4.18;;;;;;;8.68;62.77;93554.19;5002127;28;20038;-77
2024/01/02 03:16:30;;;;;;;6.28;4.60;;;;;;;8.59;63.33;93554.16;5000367;28;20064;-77
2024/01/02 03:18:55;;;;;;;6.55;4.78;;;;;;;8.23;63.96;93516.41;5001850;28;20026;-77
2024/01/02 03:21:28;;;;;;;4.88;4.00;;;;;;;8.49;63.55;93546.47;4999044;28;20053;-76
2024/01/02 03:23:55;;;;;;;4.68;3.60;;;;;;;8.42;63.75;93538.16;4998813;28;20041;-77
2024/01/02 03:26:20;;;;;;;6.57;3.95;;;;;;;8.27;64.43;93535.91;4998336;28;20029;-77
2024/01/02 03:28:46;;;;;;;4.15;3.75;;;;;;;8.33;64.66;93555.91;5006954;28;20441;-77
2024/01/02 03:31:12;;;;;;;5.03;4.07;;;;;;;8.27;64.09;93524.53;5016702;28;20120;-77
2024/01/02 03:33:37;;;;;;;5.18;4.15;;;;;;;8.38;63.11;93529.25;5000477;28;20533;-77
2024/01/02 03:36:03;;;;;;;3.90;3.35;;;;;;;8.44;63.54;93559.84;5022292;28;20417;-76
2024/01/02 03:38:30;;;;;;;5.47;4.05;;;;;;;8.30;63.78;93537.97;5009831;28;20049;-76
2024/01/02 03:40:56;;;;;;;5.82;3.38;;;;;;;8.17;64.37;93522.16;5007709;28;20044;-75
2024/01/02 03:43:21;;;;;;;5.60;4.18;;;;;;;8.33;63.69;93528.63;5022199;28;20083;-76
2024/01/02 03:45:46;;;;;;;5.45;3.83;;;;;;;8.45;63.20;93545.53;5007993;28;20025;-75
2024/01/02 03:48:12;;;;;;;4.43;3.85;;;;;;;8.41;62.83;93541.91;5005509;28;20068;-77
2024/01/02 03:50:37;;;;;;;5.55;3.80;;;;;;;8.48;62.74;93546.75;5002526;28;20045;-77
2024/01/02 03:53:03;;;;;;;5.90;4.55;;;;;;;8.39;62.78;93536.13;5002218;28;20045;-78
2024/01/02 03:55:29;;;;;;;6.40;3.72;;;;;;;8.45;62.78;93542.88;5022885;28;20057;-76
2024/01/02 03:57:54;;;;;;;6.75;4.15;;;;;;;8.51;62.45;93533.69;5020540;28;20048;-76
2024/01/02 04:00:20;;;;;;;3.95;3.40;;;;;;;8.51;62.64;93541.63;5020789;28;20515;-76
2024/01/02 04:02:45;;;;;;;5.65;3.80;;;;;;;8.51;62.55;93549.56;5021258;28;20045;-75
2024/01/02 04:05:11;;;;;;;5.30;3.63;;;;;;;8.58;62.20;93549.94;5004936;28;20594;-77
2024/01/02 04:07:36;;;;;;;4.32;3.85;;;;;;;8.63;62.46;93569.44;5007685;28;20055;-78
2024/01/02 04:10:03;;;;;;;5.30;3.47;;;;;;;8.55;62.28;93539.16;5001499;28;20453;-77
2024/01/02 04:12:28;;;;;;;5.25;3.65;;;;;;;8.63;62.71;93556.97;5019531;28;20770;-76
2024/01/02 04:14:53;;;;;;;4.47;3.70;;;;;;;8.55;62.65;93536.50;5022155;28;20038;-76
2024/01/02 04:17:19;;;;;;;5.55;3.67;;;;;;;8.70;61.91;93556.53;5022859;28;20580;-75
2024/01/02 04:19:44;;;;;;;5.22;3.10;;;;;;;8.72;62.21;93559.63;5023308;28;20048;-75
2024/01/02 04:22:09;;;;;;;4.57;3.00;;;;;;;8.39;61.89;93519.44;5022789;28;20032;-75
2024/01/02 04:24:35;;;;;;;5.10;4.18;;;;;;;8.53;61.86;93550.06;5019266;28;20028;-74
2024/01/02 04:27:00;;;;;;;3.95;3.05;;;;;;;8.45;62.52;93542.88;5021534;28;20529;-77
2024/01/02 04:29:26;;;;;;;4.15;3.45;;;;;;;8.28;63.15;93528.75;5017557;28;20048;-77
2024/01/02 04:31:51;;;;;;;5.93;3.45;;;;;;;8.50;62.94;93574.53;5021569;28;20979;-77
2024/01/02 04:34:16;;;;;;;4.45;3.47;;;;;;;8.35;62.99;93555.59;5007602;28;20279;-77
2024/01/02 04:36:43;;;;;;;4.78;3.35;;;;;;;8.10;64.12;93557.03;5007313;28;20029;-77
2024/01/02 04:39:08;;;;;;;4.00;2.72;;;;;;;8.30;63.37;93564.47;5009081;28;20041;-77
2024/01/02 04:41:33;;;;;;;3.83;3.22;;;;;;;8.38;63.52;93570.88;5018282;28;20185;-77
2024/01/02 04:43:59;;;;;;;6.70;4.40;;;;;;;8.46;62.94;93581.50;5017448;28;20165;-74
2024/01/02 04:46:27;;;;;;;7.60;3.88;;;;;;;8.17;63.39;93583.09;5007878;28;20740;-76
2024/01/02 04:48:53;;;;;;;5.15;2.92;;;;;;;8.22;63.55;93590.91;5022829;28;20056;-77
2024/01/02 04:51:18;;;;;;;6.45;2.67;;;;;;;8.16;63.69;93584.97;5009913;28;20036;-77
2024/01/02 04:53:44;;;;;;;3.00;2.67;;;;;;;7.76;64.14;93543.56;5018909;28;20501;-78
2024/01/02 04:56:09;;;;;;;2.78;2.13;;;;;;;7.58;64.89;93572.50;5019963;28;20037;-78
2024/01/02 04:58:35;;;;;;;8.45;3.72;;;;;;;7.86;64.17;93554.72;5002652;28;20656;-77
2024/01/02 05:01:00;;;;;;;8.80;4.35;;;;;;;7.93;64.65;93576.22;5015006;28;20028;-77
2024/01/02 05:03:26;;;;;;;7.72;4.18;;;;;;;7.98;64.52;93583.25;4998818;28;20029;-78
2024/01/02 05:05:51;;;;;;;5.22;3.05;;;;;;;7.91;64.87;93578.41;5011850;28;21817;-75
2024/01/02 05:08:17;;;;;;;2.60;2.40;;;;;;;7.44;65.49;93574.44;5022397;28;20060;-77
2024/01/02 05:10:42;;;;;;;2.95;2.58;;;;;;;7.51;65.37;93572.16;5015698;28;20107;-75
2024/01/02 05:13:07;;;;;;;2.83;2.53;;;;;;;7.68;64.91;93596.09;5020055;28;20557;-75
2024/01/02 05:15:33;;;;;;;3.78;3.05;;;;;;;7.49;65.20;93589.41;4999707;28;20508;-75
2024/01/02 05:17:59;;;;;;;3.83;3.28;;;;;;;7.34;64.82;93550.09;5000229;28;20049;-75
2024/01/02 05:20:24;;;;;;;4.88;3.15;;;;;;;7.54;65.68;93594.59;5010768;28;20044;-78
2024/01/02 05:22:49;;;;;;;4.13;2.47;;;;;;;7.52;65.35;93597.56;4998782;28;20044;-74
2024/01/02 05:25:15;;;;;;;4.57;2.50;;;;;;;7.44;65.58;93563.84;5016389;28;20508;-75
2024/01/02 05:27:40;;;;;;;4.90;3.53;;;;;;;7.66;65.00;93598.28;5011670;28;20025;-75
2024/01/02 05:30:06;;;;;;;8.27;4.32;;;;;;;7.49;65.32;93587.53;5013815;28;20696;-75
2024/01/02 05:32:32;;;;;;;5.43;3.45;;;;;;;7.62;65.40;93612.41;5000749;28;20763;-75
2024/01/02 05:34:57;;;;;;;6.00;5.00;;;;;;;7.21;65.90;93564.88;4997290;28;20037;-76
2024/01/02 05:37:23;;;;;;;7.15;4.43;;;;;;;7.25;66.74;93592.31;5012149;28;20152;-75
2024/01/02 05:39:48;;;;;;;5.15;3.88;;;;;;;7.10;66.44;93579.41;5015444;28;20030;-75
2024/01/02 05:42:13;;;;;;;7.43;3.25;;;;;;;6.86;67.04;93595.50;4997668;28;20068;-74
2024/01/02 05:44:39;;;;;;;3.50;2.97;;;;;;;6.88;67.67;93613.72;4999410;28;20057;-75
2024/01/02 05:47:04;;;;;;;2.90;2.60;;;;;;;6.75;68.17;93631.91;5001531;28;20510;-77
2024/01/02 05:49:30;;;;;;;3.72;2.40;;;;;;;6.57;68.38;93624.84;5000177;28;20037;-77
2024/01/02 05:51:56;;;;;;;2.58;2.38;;;;;;;6.46;68.92;93628.75;5001752;28;20444;-77
2024/01/02 05:54:22;;;;;;;3.17;2.20;;;;;;;6.35;69.27;93638.72;4995343;28;20038;-77
2024/01/02 05:56:47;;;;;;;1.70;1.60;;;;;;;6.29;68.74;93610.03;4998963;28;20402;-76
2024/01/02 05:59:13;;;;;;;3.75;2.00;;;;;;;6.46;68.99;93646.47;5002773;28;20045;-76
2024/01/02 06:01:38;;;;;;;2.42;2.10;;;;;;;6.28;69.33;93621.66;4998643;28;20042;-76
2024/01/02 06:04:03;;;;;;;2.95;2.30;;;;;;;6.50;69.79;93656.16;4996441;28;20479;-77
2024/01/02 06:06:29;;;;;;;4.43;3.00;;;;;;;6.56;69.42;93659.47;4999767;28;20459;-76
2024/01/02 06:08:54;;;;;;;2.92;2.58;;;;;;;6.43;69.00;93635.41;4997609;28;20053;-77
2024/01/02 06:11:20;;;;;;;5.50;3.90;;;;;;;6.34;69.19;93645.06;4993079;28;20685;-76
2024/01/02 06:13:45;;;;;;;4.95;3.15;;;;;;;6.28;69.41;93637.50;5006821;28;21028;-76
2024/01/02 06:16:10;;;;;;;4.90;2.60;;;;;;;6.50;69.55;93666.72;4998312;28;20041;-76
2024/01/02 06:18:37;;;;;;;3.78;2.85;;;;;;;6.49;69.94;93664.38;5000676;28;20474;-77
2024/01/02 06:21:04;;;;;;;3.40;2.78;;;;;;;6.69;68.67;93680.66;4999126;28;20113;-76
2024/01/02 06:23:31;;;;;;;3.90;2.58;;;;;;;6.34;68.75;93636.34;4998057;28;20091;-77
2024/01/02 06:25:57;;;;;;;2.42;2.10;;;;;;;6.60;68.63;93671.84;4991681;28;20041;-76
2024/01/02 06:28:23;;;;;;;2.28;2.08;;;;;;;6.33;69.27;93663.84;5000310;28;20049;-76
2024/01/02 06:30:48;;;;;;;5.38;3.05;;;;;;;6.61;68.63;93683.97;5012832;28;20031;-77
2024/01/02 06:33:14;;;;;;;4.47;2.63;;;;;;;6.47;68.84;93683.16;5001585;28;20320;-76
2024/01/02 06:35:39;;;;;;;3.90;2.53;;;;;;;6.70;68.33;93697.31;4999225;28;20238;-76
2024/01/02 06:38:05;;;;;;;3.35;3.05;;;;;;;6.68;68.26;93694.94;5009875;28;20256;-76
2024/01/02 06:40:30;;;;;;;3.55;2.58;;;;;;;6.20;69.23;93661.94;4994631;28;20503;-76
2024/01/02 06:42:56;;;;;;;6.03;3.80;;;;;;;6.34;68.50;93668.06;4991712;28;20029;-77
2024/01/02 06:45:21;;;;;;;3.90;2.85;;;;;;;6.58;68.79;93697.75;4991620;28;20033;-77
2024/01/02 06:47:47;;;;;;;6.75;3.30;;;;;;;6.33;69.23;93692.91;4990527;28;20038;-76
2024/01/02 06:50:12;;;;;;;4.30;3.63;;;;;;;6.38;68.63;93676.97;4982642;28;20048;-78
2024/01/02 06:52:37;;;;;;;5.65;4.18;;;;;;;6.51;68.89;93712.41;4991188;28;20157;-75
2024/01/02 06:55:04;;;;;;;3.85;3.42;;;;;;;6.45;69.20;93717.00;4992794;28;20383;-74
2024/01/02 06:57:29;;;;;;;3.95;3.55;;;;;;;6.34;69.66;93720.88;5013169;28;20033;-76
2024/01/02 06:59:56;;;;;;;5.72;4.38;;;;;;;6.20;70.11;93726.13;5010865;28;20499;-77
2024/01/02 07:02:21;;;;;;;7.97;3.80;;;;;;;6.06;70.63;93708.63;5000781;28;20092;-77
2024/01/02 07:04:47;;;;;;;4.72;4.03;;;;;;;6.07;70.24;93704.91;5014973;28;20368;-75
2024/01/02 07:07:12;;;;;;;5.00;3.80;;;;;;;6.09;70.95;93723.88;5017304;28;20620;-76
2024/01/02 07:09:37;;;;;;;4.57;4.05;;;;;;;5.95;70.94;93711.41;5013595;28;20047;-76
2024/01/02 07:12:04;;;;;;;4.20;3.40;;;;;;;5.53;72.95;93711.44;5016462;28;20041;-76
2024/01/02 07:14:29;;;;;;;4.40;2.75;;;;;;;5.22;74.63;93704.97;5017708;28;20071;-76
2024/01/02 07:16:54;;;;;;;3.40;2.63;;;;;;;5.42;73.42;93710.00;5021674;28;20529;-76
2024/01/02 07:19:20;;;;;;;5.13;2.53;;;;;;;5.44;72.63;93710.50;5013080;28;21543;-76
2024/01/02 07:21:46;;;;;;;3.63;2.97;;;;;;;5.17;73.94;93707.69;5013923;28;20040;-78
2024/01/02 07:24:14;;;;;;;4.30;3.13;;;;;;;5.05;74.47;93732.56;4994404;28;20041;-77
2024/01/02 07:26:39;;;;;;;7.22;3.45;;;;;;;5.26;74.16;93737.63;5009201;28;20059;-74
2024/01/02 07:29:05;;;;;;;3.58;2.67;;;;;;;5.11;73.77;93714.84;4993585;28;20065;-76
2024/01/02 07:31:32;;;;;;;4.72;3.13;;;;;;;5.34;73.70;93735.16;4991747;28;21019;-75
2024/01/02 07:33:58;;;;;;;4.80;3.42;;;;;;;5.36;73.52;93737.50;5011959;28;20029;-75
2024/01/02 07:36:23;;;;;;;4.28;3.22;;;;;;;5.37;73.27;93737.25;5012555;28;20033;-74
2024/01/02 07:38:49;;;;;;;6.63;3.85;;;;;;;5.13;74.05;93729.34;5002791;28;20047;-75
2024/01/02 07:41:14;;;;;;;7.38;3.50;;;;;;;5.22;73.54;93737.41;5013046;28;20526;-75
2024/01/02 07:43:40;;;;;;;5.53;3.40;;;;;;;5.44;73.06;93744.78;5012662;28;20080;-75
2024/01/02 07:46:05;;;;;;;5.63;3.85;;;;;;;5.57;72.88;93749.41;5008969;28;20033;-75
2024/01/02 07:48:31;;;;;;;5.25;3.53;;;;;;;5.57;72.62;93738.84;4994380;28;20397;-76
2024/01/02 07:50:56;;;;;;;5.25;2.72;;;;;;;5.86;71.47;93752.72;5002189;28;20363;-75
2024/01/02 07:53:22;;;;;;;3.70;2.80;;;;;;;5.85;71.38;93753.78;4997717;28;20095;-76
2024/01/02 07:55:48;;;;;;;4.10;2.75;;;;;;;5.57;72.31;93744.13;5007732;28;20123;-76
2024/01/02 07:58:14;;;;;;;5.22;3.00;;;;;;;5.52;71.70;93746.81;5007482;28;20057;-76
2024/01/02 08:00:39;;;;;;;4.53;2.70;;;;;;;5.63;71.93;93764.06;5013652;28;20777;-75
2024/01/02 08:03:05;;;;;;;7.03;2.53;;;;;;;5.25;72.03;93726.28;4996676;28;20056;-76
2024/01/02 08:05:30;;;;;;;5.55;3.00;;;;;;;5.50;72.06;93743.66;5012352;28;20033;-75
2024/01/02 08:07:56;;;;;;;6.60;2.88;;;;;;;5.66;71.51;93768.00;5007858;28;20513;-76
2024/01/02 08:10:21;;;;;;;4.57;3.55;;;;;;;5.26;73.42;93766.63;5011102;28;20490;-74
2024/01/02 08:12:46;;;;;;;6.75;3.83;;;;;;;5.38;73.03;93745.94;5010267;28;20140;-75
2024/01/02 08:15:12;;;;;;;8.00;4.57;;;;;;;5.76;72.19;93778.44;5003397;28;20209;-75
2024/01/02 08:17:37;;;;;;;6.68;4.82;;;;;;;5.79;71.38;93752.28;5009504;28;20036;-75
2024/01/02 08:20:03;;;;;;;36.65;20.63;;;;;;;5.98;71.50;93779.47;4989128;28;20045;-75
2024/01/02 08:22:29;;;;;;;10.45;6.28;;;;;;;6.10;70.75;93772.97;5010424;28;20152;-76
2024/01/02 08:24:54;;;;;;;8.57;5.57;;;;;;;5.69;71.91;93776.16;5016863;28;20033;-77
2024/01/02 08:27:20;;;;;;;6.05;3.45;;;;;;;5.51;72.23;93782.19;5013036;28;20484;-76
2024/01/02 08:29:45;;;;;;;6.10;3.45;;;;;;;5.61;72.29;93779.41;5007307;28;20050;-77
2024/01/02 08:32:11;;;;;;;5.82;3.95;;;;;;;5.00;73.43;93752.94;4994883;28;20042;-77
2024/01/02 08:34:36;;;;;;;4.75;3.53;;;;;;;5.38;73.11;93767.78;4997287;28;20318;-78
2024/01/02 08:37:02;;;;;;;6.28;3.72;;;;;;;5.48;72.08;93756.38;4996907;28;20026;-77
2024/01/02 08:39:27;;;;;;;4.93;3.08;;;;;;;5.61;72.08;93782.06;4994201;28;20033;-78
2024/01/02 08:41:52;;;;;;;8.20;5.32;;;;;;;5.35;72.95;93751.75;4995714;28;20388;-77
2024/01/02 08:44:19;;;;;;;12.00;6.28;;;;;;;5.50;72.82;93728.63;4993298;28;20793;-77
2024/01/02 08:46:44;;;;;;;5.53;4.53;;;;;;;5.22;73.00;93739.25;4986386;28;20035;-77
2024/01/02 08:49:11;;;;;;;5.53;4.75;;;;;;;5.76;72.41;93783.72;4999823;28;20033;-77
2024/01/02 08:51:36;;;;;;;7.50;4.18;;;;;;;5.64;72.27;93770.94;4993968;28;20021;-78
2024/01/02 08:54:02;;;;;;;6.03;3.90;;;;;;;5.89;71.71;93775.09;4993190;28;20455;-77
2024/01/02 08:56:27;;;;;;;6.47;2.95;;;;;;;5.43;72.38;93743.25;4997882;28;20483;-76
2024/01/02 08:58:53;;;;;;;7.10;3.67;;;;;;;5.26;72.95;93764.00;4982740;28;20103;-77
2024/01/02 09:01:18;;;;;;;7.10;3.28;;;;;;;5.49;72.91;93784.28;4975321;28;20626;-76
2024/01/02 09:03:44;;;;;;;4.97;2.58;;;;;;;5.23;73.64;93785.66;4993690;28;20574;-76
2024/01/02 09:06:09;;;;;;;5.07;2.88;;;;;;;5.37;72.89;93781.28;4995828;28;20564;-76
2024/01/02 09:08:34;;;;;;;6.10;3.92;;;;;;;5.32;72.91;93765.50;4995527;28;20044;-77
2024/01/02 09:11:00;;;;;;;8.45;5.57;;;;;;;5.62;73.04;93767.81;4991189;28;20502;-75
2024/01/02 09:13:25;;;;;;;5.13;3.42;;;;;;;5.66;72.11;93752.97;4996581;28;20427;-77
2024/01/02 09:15:52;;;;;;;6.68;4.20;;;;;;;5.85;71.76;93777.53;4995111;28;20414;-75
2024/01/02 09:18:17;;;;;;;4.93;3.33;;;;;;;5.50;71.61;93735.75;4991067;28;20041;-77
2024/01/02 09:20:44;;;;;;;5.40;3.83;;;;;;;5.79;71.35;93776.03;4996444;28;20095;-77
2024/01/02 09:23:09;;;;;;;5.05;2.85;;;;;;;5.80;70.93;93764.41;5006637;28;20052;-77
2024/01/02 09:25:39;;;;;;;10.32;3.80;;;;;;;5.77;70.40;93749.16;5001960;28;20042;-77
2024/01/02 09:28:06;;;;;;;5.53;3.55;;;;;;;5.84;70.91;93775.94;4996197;28;20545;-78
2024/01/02 09:30:32;;;;;;;4.40;3.08;;;;;;;5.68;71.63;93776.41;5016525;28;20073;-77
2024/01/02 09:32:58;;;;;;;4.97;2.92;;;;;;;5.52;71.64;93747.59;5001519;28;20474;-77
2024/01/02 09:35:24;;;;;;;4.90;3.22;;;;;;;5.82;71.90;93767.53;4985026;28;20559;-77
2024/01/02 09:37:49;;;;;;;4.35;3.05;;;;;;;5.80;70.79;93758.34;5005888;28;20044;-78
2024/01/02 09:40:34;;;;;;;8.38;4.82;;;;;;;6.01;69.94;93767.56;4999359;28;20028;-78
2024/01/02 09:43:21;;;;;;;8.75;3.03;;;;;;;5.72;69.06;93766.88;5020609;28;20529;-78
2024/01/02 09:45:59;;;;;;;9.23;7.00;;;;;;;6.03;69.20;93762.75;5014706;28;20039;-77
2024/01/02 09:48:41;;;;;;;6.85;4.68;;;;;;;5.99;68.94;93746.72;5013411;28;20107;-77
2024/01/02 09:51:25;;;;;;;11.88;8.27;;;;;;;6.15;69.26;93741.22;5013263;28;20038;-77
2024/01/02 09:54:11;;;;;;;13.27;9.70;;;;;;;6.22;68.89;93717.88;5006458;28;20069;-77
2024/01/02 09:56:37;;;;;;;12.85;8.75;;;;;;;6.29;68.53;93736.81;5003301;28;20053;-77
2024/01/02 09:59:20;;;;;;;11.07;7.38;;;;;;;6.28;69.13;93737.88;5009868;28;20040;-79
2024/01/02 10:02:19;;;;;;;8.68;6.00;;;;;;;6.34;69.40;93731.44;5014363;28;20095;-77
2024/01/02 10:05:11;;;;;;;5.80;4.38;;;;;;;6.05;69.17;93676.16;5010080;28;20091;-77
2024/01/02 10:07:55;;;;;;;6.65;4.43;;;;;;;6.13;69.47;93719.59;4994099;28;20048;-77
2024/01/02 10:10:36;;;;;;;6.03;3.78;;;;;;;6.00;70.60;93706.06;5015314;28;20041;-77
2024/01/02 10:13:14;;;;;;;6.53;3.70;;;;;;;5.57;71.30;93712.47;5003084;28;20033;-79
2024/01/02 10:16:01;;;;;;;4.97;3.92;;;;;;;5.84;70.61;93712.63;4999818;28;20790;-77
2024/01/02 10:18:36;;;;;;;5.45;3.90;;;;;;;5.62;71.38;93709.75;5011630;28;20053;-76
2024/01/02 10:21:16;;;;;;;3.95;2.90;;;;;;;5.80;71.89;93721.38;5009406;28;20095;-76
2024/01/02 10:23:54;;;;;;;4.75;2.70;;;;;;;5.87;70.35;93717.31;4989615;28;20043;-75
2024/01/02 10:26:24;;;;;;;3.65;2.30;;;;;;;5.93;71.13;93713.53;5014315;28;20055;-78
2024/01/02 10:28:50;;;;;;;5.65;2.33;;;;;;;5.91;70.49;93705.13;5001668;28;20056;-77
2024/01/02 10:31:18;;;;;;;5.18;4.35;;;;;;;6.23;70.78;93706.25;5000950;28;20033;-77
2024/01/02 10:33:50;;;;;;;3.05;2.15;;;;;;;6.26;70.35;93703.06;4993355;28;20044;-77
2024/01/02 10:36:23;;;;;;;10.30;4.00;;;;;;;6.57;70.02;93705.97;5005001;28;20567;-77
2024/01/02 10:39:22;;;;;;;2.97;1.60;;;;;;;6.36;68.36;93702.91;5011773;28;20075;-77
2024/01/02 10:42:06;;;;;;;4.97;3.17;;;;;;;6.57;69.51;93693.53;5012115;28;20034;-78
2024/01/02 10:44:48;;;;;;;16.45;9.35;;;;;;;6.68;69.66;93694.16;5008942;28;20159;-75
2024/01/02 10:47:37;;;;;;;18.45;10.48;;;;;;;6.61;69.17;93691.88;5005867;28;20051;-78
2024/01/02 10:50:03;;;;;;;13.35;8.52;;;;;;;6.58;69.27;93694.34;5001567;28;20069;-75
2024/01/02 10:52:48;;;;;;;14.00;8.02;;;;;;;6.55;69.63;93689.63;4991002;28;20037;-74
2024/01/02 10:55:28;;;;;;;7.00;4.18;;;;;;;6.60;69.91;93697.47;5009360;28;20482;-77
2024/01/02 10:58:06;;;;;;;9.48;5.45;;;;;;;6.58;69.47;93684.56;5010759;28;20033;-75
2024/01/02 11:00:38;;;;;;;8.18;4.40;;;;;;;6.67;68.75;93693.38;4995738;28;20067;-77
2024/01/02 11:03:10;;;;;;;5.80;3.78;;;;;;;6.83;68.36;93684.09;5010706;28;20064;-76
2024/01/02 11:05:42;;;;;;;11.52;5.93;;;;;;;7.07;67.74;93688.44;5011584;28;20042;-77
2024/01/02 11:08:42;;;;;;;14.70;9.48;;;;;;;7.24;67.06;93680.66;5010783;28;20925;-75
2024/01/02 11:11:09;;;;;;;6.50;4.53;;;;;;;7.04;67.97;93683.72;5008597;28;20528;-78
2024/01/02 11:13:38;;;;;;;6.28;4.07;;;;;;;6.48;69.33;93642.44;4990175;28;20047;-77
2024/01/02 11:16:20;;;;;;;5.15;3.63;;;;;;;6.89;68.71;93662.88;5008242;28;20120;-76
2024/01/02 11:18:52;;;;;;;5.43;3.45;;;;;;;6.72;69.22;93658.94;5002831;28;22235;-77
2024/01/02 11:21:50;;;;;;;4.72;3.85;;;;;;;6.91;69.61;93677.34;4991875;28;20098;-77
2024/01/02 11:24:24;;;;;;;4.40;3.15;;;;;;;6.89;68.48;93671.59;5005177;28;20037;-77
2024/01/02 11:26:52;;;;;;;5.40;3.60;;;;;;;6.85;69.10;93644.13;5010745;28;20048;-78
2024/01/02 11:29:22;;;;;;;9.07;3.90;;;;;;;7.22;69.03;93656.41;4989690;28;20053;-77
2024/01/02 11:31:52;;;;;;;4.32;3.83;;;;;;;7.22;68.95;93651.09;4982426;28;20042;-79
2024/01/02 11:34:23;;;;;;;6.57;3.60;;;;;;;7.26;69.21;93646.78;4992132;28;20049;-78
2024/01/02 11:37:12;;;;;;;5.90;3.75;;;;;;;7.37;68.57;93650.78;4998508;28;20453;-78
2024/01/02 11:40:05;;;;;;;5.70;3.47;;;;;;;7.16;69.35;93662.84;5012847;28;20080;-77
2024/01/02 11:42:59;;;;;;;4.03;3.13;;;;;;;6.76;69.68;93659.91;5010939;28;20073;-78
2024/01/02 11:45:32;;;;;;;3.50;3.17;;;;;;;6.76;69.70;93665.19;5006876;28;20041;-78